DLH241 EGLL-EDDF
Flight info
| Callsign | DLH241 |
|---|---|
| Flight time | N/A |
| Altitude | 35000 |
| Route | DET L6 DVR UL9 KONAN UL607 SPI T180 NIVNU T847 IMCOM IMCOM1A |
| Aircraft | A20N/M-SDE2E3FGHIRWXY/LB1 |
Departure
| Time | 2026-05-06 16:35 |
|---|---|
| Airport | London Heathrow Airport (EGLL) |
Arrival
| Time | N/A |
|---|---|
| Airport | Frankfurt Main Airport (EDDF) |
| Time | Latitude | Longitude | Altitude | Speed | Heading |
|---|---|---|---|---|---|
| 2026-05-06 16:07 | 51.46819 | -0.45046 | 89 ft | 0 kts | 358° |
| 2026-05-06 16:23 | 51.46818 | -0.45046 | 87 ft | 1 kts | 358° |
| 2026-05-06 16:23 | 51.46810 | -0.45046 | 86 ft | 1 kts | 358° |
| 2026-05-06 16:23 | 51.46803 | -0.45045 | 84 ft | 1 kts | 358° |
| 2026-05-06 16:23 | 51.46795 | -0.45045 | 85 ft | 1 kts | 358° |
| 2026-05-06 16:24 | 51.46787 | -0.45045 | 85 ft | 1 kts | 358° |
| 2026-05-06 16:24 | 51.46785 | -0.45045 | 85 ft | 1 kts | 358° |
| 2026-05-06 16:24 | 51.46778 | -0.45044 | 85 ft | 1 kts | 358° |
| 2026-05-06 16:24 | 51.46770 | -0.45044 | 85 ft | 1 kts | 358° |
| 2026-05-06 16:25 | 51.46762 | -0.45044 | 85 ft | 1 kts | 337° |
| 2026-05-06 16:25 | 51.46755 | -0.45038 | 86 ft | 1 kts | 301° |
| 2026-05-06 16:25 | 51.46752 | -0.45028 | 87 ft | 0 kts | 272° |
| 2026-05-06 16:26 | 51.46752 | -0.45029 | 87 ft | 1 kts | 272° |
| 2026-05-06 16:26 | 51.46753 | -0.45089 | 85 ft | 9 kts | 271° |
| 2026-05-06 16:27 | 51.46754 | -0.45212 | 85 ft | 13 kts | 271° |
| 2026-05-06 16:27 | 51.46752 | -0.45373 | 85 ft | 16 kts | 269° |
| 2026-05-06 16:27 | 51.46750 | -0.45566 | 84 ft | 19 kts | 269° |
| 2026-05-06 16:27 | 51.46749 | -0.45790 | 84 ft | 21 kts | 270° |
| 2026-05-06 16:28 | 51.46751 | -0.46035 | 84 ft | 23 kts | 269° |
| 2026-05-06 16:28 | 51.46748 | -0.46307 | 85 ft | 25 kts | 269° |
| 2026-05-06 16:28 | 51.46751 | -0.46591 | 85 ft | 27 kts | 271° |
| 2026-05-06 16:28 | 51.46748 | -0.46876 | 87 ft | 26 kts | 271° |
| 2026-05-06 16:29 | 51.46749 | -0.47171 | 84 ft | 27 kts | 263° |
| 2026-05-06 16:29 | 51.46747 | -0.47457 | 86 ft | 25 kts | 269° |
| 2026-05-06 16:29 | 51.46747 | -0.47709 | 88 ft | 19 kts | 270° |
| 2026-05-06 16:29 | 51.46745 | -0.47896 | 86 ft | 16 kts | 268° |
| 2026-05-06 16:30 | 51.46744 | -0.48085 | 84 ft | 17 kts | 269° |
| 2026-05-06 16:30 | 51.46727 | -0.48189 | 88 ft | 12 kts | 226° |
| 2026-05-06 16:30 | 51.46614 | -0.48215 | 86 ft | 9 kts | 180° |
| 2026-05-06 16:30 | 51.46595 | -0.48215 | 86 ft | 0 kts | 180° |
| 2026-05-06 16:33 | 51.46573 | -0.48215 | 86 ft | 7 kts | 180° |
| 2026-05-06 16:34 | 51.46483 | -0.48107 | 85 ft | 0 kts | 89° |
| 2026-05-06 16:34 | 51.46483 | -0.48050 | 85 ft | 24 kts | 89° |
| 2026-05-06 16:34 | 51.46493 | -0.47412 | 81 ft | 91 kts | 88° |
| 2026-05-06 16:34 | 51.46496 | -0.46095 | 84 ft | 142 kts | 90° |
| 2026-05-06 16:35 | 51.46481 | -0.44391 | 435 ft | 154 kts | 88° |
| 2026-05-06 16:35 | 51.46489 | -0.42697 | 1107 ft | 151 kts | 85° |
| 2026-05-06 16:35 | 51.46365 | -0.41001 | 1725 ft | 157 kts | 107° |
| 2026-05-06 16:35 | 51.45848 | -0.39380 | 2273 ft | 173 kts | 118° |
| 2026-05-06 16:36 | 51.45143 | -0.37660 | 2746 ft | 195 kts | 121° |
| 2026-05-06 16:36 | 51.44351 | -0.35801 | 3188 ft | 225 kts | 121° |
| 2026-05-06 16:36 | 51.43649 | -0.33382 | 3588 ft | 252 kts | 105° |
| 2026-05-06 16:36 | 51.43180 | -0.30643 | 4426 ft | 262 kts | 102° |
| 2026-05-06 16:37 | 51.42756 | -0.27739 | 4905 ft | 269 kts | 97° |
| 2026-05-06 16:37 | 51.42436 | -0.24802 | 5025 ft | 266 kts | 98° |
| 2026-05-06 16:37 | 51.42075 | -0.21867 | 5148 ft | 268 kts | 99° |
| 2026-05-06 16:37 | 51.41693 | -0.18971 | 5263 ft | 269 kts | 100° |
| 2026-05-06 16:38 | 51.41293 | -0.16044 | 5381 ft | 270 kts | 100° |
| 2026-05-06 16:38 | 51.40885 | -0.13104 | 5491 ft | 270 kts | 101° |
| 2026-05-06 16:38 | 51.40472 | -0.10170 | 5616 ft | 271 kts | 101° |
| 2026-05-06 16:38 | 51.40053 | -0.07218 | 5735 ft | 272 kts | 101° |
| 2026-05-06 16:39 | 51.39633 | -0.04259 | 5855 ft | 273 kts | 101° |
| 2026-05-06 16:39 | 51.39218 | -0.01332 | 5967 ft | 272 kts | 101° |
| 2026-05-06 16:39 | 51.38798 | 0.01638 | 5997 ft | 274 kts | 101° |
| 2026-05-06 16:39 | 51.38378 | 0.04606 | 5997 ft | 272 kts | 101° |
| 2026-05-06 16:40 | 51.37958 | 0.07565 | 6002 ft | 274 kts | 101° |
| 2026-05-06 16:40 | 51.37535 | 0.10528 | 6000 ft | 272 kts | 101° |
| 2026-05-06 16:40 | 51.37107 | 0.13484 | 6001 ft | 273 kts | 101° |
| 2026-05-06 16:40 | 51.36678 | 0.16443 | 6000 ft | 272 kts | 101° |
| 2026-05-06 16:41 | 51.36249 | 0.19397 | 6003 ft | 273 kts | 100° |
| 2026-05-06 16:41 | 51.35824 | 0.22351 | 5999 ft | 272 kts | 101° |
| 2026-05-06 16:41 | 51.35404 | 0.25280 | 5995 ft | 273 kts | 100° |
| 2026-05-06 16:41 | 51.35026 | 0.27918 | 5994 ft | 272 kts | 100° |
| 2026-05-06 16:42 | 51.34602 | 0.30874 | 5993 ft | 273 kts | 101° |
| 2026-05-06 16:42 | 51.34175 | 0.33832 | 5991 ft | 273 kts | 101° |
| 2026-05-06 16:42 | 51.33753 | 0.36751 | 5994 ft | 273 kts | 100° |
| 2026-05-06 16:42 | 51.33323 | 0.39711 | 5989 ft | 273 kts | 101° |
| 2026-05-06 16:43 | 51.32895 | 0.42664 | 5991 ft | 272 kts | 101° |
| 2026-05-06 16:43 | 51.32465 | 0.45618 | 5991 ft | 272 kts | 101° |
| 2026-05-06 16:43 | 51.32035 | 0.48565 | 5992 ft | 272 kts | 101° |
| 2026-05-06 16:43 | 51.31605 | 0.51499 | 5993 ft | 272 kts | 101° |
| 2026-05-06 16:44 | 51.31174 | 0.54451 | 6000 ft | 273 kts | 101° |
| 2026-05-06 16:44 | 51.30741 | 0.57409 | 5990 ft | 272 kts | 101° |
| 2026-05-06 16:44 | 51.30294 | 0.60340 | 5990 ft | 273 kts | 103° |
| 2026-05-06 16:44 | 51.29756 | 0.63270 | 6189 ft | 277 kts | 104° |
| 2026-05-06 16:45 | 51.29214 | 0.66239 | 6892 ft | 279 kts | 104° |
| 2026-05-06 16:45 | 51.28670 | 0.69216 | 7986 ft | 280 kts | 104° |
| 2026-05-06 16:45 | 51.28118 | 0.72240 | 8931 ft | 286 kts | 104° |
| 2026-05-06 16:45 | 51.27557 | 0.75321 | 9908 ft | 292 kts | 105° |
| 2026-05-06 16:46 | 51.26978 | 0.78488 | 10569 ft | 307 kts | 105° |
| 2026-05-06 16:46 | 51.26356 | 0.81882 | 10960 ft | 330 kts | 105° |
| 2026-05-06 16:46 | 51.25691 | 0.85493 | 11520 ft | 343 kts | 105° |
| 2026-05-06 16:46 | 51.25013 | 0.89162 | 12421 ft | 346 kts | 105° |
| 2026-05-06 16:47 | 51.24326 | 0.92872 | 13309 ft | 350 kts | 106° |
| 2026-05-06 16:47 | 51.23639 | 0.96576 | 14112 ft | 354 kts | 106° |
| 2026-05-06 16:47 | 51.22935 | 1.00368 | 14901 ft | 358 kts | 106° |
| 2026-05-06 16:47 | 51.22224 | 1.04191 | 15676 ft | 361 kts | 106° |
| 2026-05-06 16:48 | 51.21503 | 1.08056 | 16437 ft | 365 kts | 106° |
| 2026-05-06 16:48 | 51.20772 | 1.11969 | 17186 ft | 369 kts | 106° |
| 2026-05-06 16:48 | 51.20033 | 1.15919 | 17919 ft | 374 kts | 107° |
| 2026-05-06 16:48 | 51.19285 | 1.19905 | 18612 ft | 377 kts | 107° |
| 2026-05-06 16:49 | 51.18568 | 1.23718 | 19162 ft | 382 kts | 107° |